Time;durP1;ratioP1;P1;durP2;ratioP2;P2;SDS_P1;SDS_P2;PMS_P1;PMS_P2;Temp;Humidity;BMP_temperature;BMP_pressure;BME280_temperature;BME280_humidity;BME280_pressure;Samples;Min_cycle;Max_cycle;Signal;HPM_P1;HPM_P2
2024/02/14 00:00:35;;;;;;;59.80;33.80;;;;;;;;;;6266008;28;24415;-81
2024/02/14 00:03:38;;;;;;;139.43;67.00;;;;;;;;;;6258203;28;24485;-80
2024/02/14 00:06:39;;;;;;;113.00;56.22;;;;;;;;;;6260479;28;24444;-81
2024/02/14 00:09:41;;;;;;;76.45;38.70;;;;;;;;;;6266841;28;24431;-80
2024/02/14 00:12:42;;;;;;;35.42;19.23;;;;;;;;;;6263712;28;24440;-81
2024/02/14 00:15:46;;;;;;;22.42;13.75;;;;;;;;;;6266119;28;24431;-81
2024/02/14 00:18:47;;;;;;;18.27;12.15;;;;;;;;;;6262772;28;24536;-82
2024/02/14 00:21:49;;;;;;;18.15;11.40;;;;;;;;;;6261706;28;24687;-81
2024/02/14 00:24:50;;;;;;;18.00;11.55;;;;;;;;;;6261845;28;24430;-81
2024/02/14 00:27:52;;;;;;;19.53;11.67;;;;;;;;;;6266326;28;24825;-83
2024/02/14 00:30:54;;;;;;;17.67;11.70;;;;;;;;;;6263556;28;24432;-81
2024/02/14 00:33:56;;;;;;;17.13;11.48;;;;;;;;;;6265145;28;24427;-82
2024/02/14 00:36:57;;;;;;;19.55;11.43;;;;;;;;;;6264387;28;24600;-81
2024/02/14 00:39:59;;;;;;;18.87;11.87;;;;;;;;;;6266048;28;24547;-82
2024/02/14 00:43:00;;;;;;;16.45;11.18;;;;;;;;;;6268914;28;24416;-82
2024/02/14 00:46:03;;;;;;;16.40;11.63;;;;;;;;;;6269122;28;24428;-82
2024/02/14 00:49:04;;;;;;;16.48;10.85;;;;;;;;;;6268900;28;24411;-82
2024/02/14 00:52:06;;;;;;;14.63;10.55;;;;;;;;;;6268213;28;24420;-81
2024/02/14 00:55:08;;;;;;;15.77;10.93;;;;;;;;;;6270316;28;24423;-81
2024/02/14 00:58:10;;;;;;;15.90;10.68;;;;;;;;;;6268876;28;24802;-81
2024/02/14 01:01:13;;;;;;;15.13;10.25;;;;;;;;;;6267574;28;24791;-82
2024/02/14 01:04:14;;;;;;;15.57;10.80;;;;;;;;;;6269938;28;24524;-81
2024/02/14 01:07:16;;;;;;;14.27;10.25;;;;;;;;;;6271376;28;24427;-81
2024/02/14 01:10:18;;;;;;;14.55;10.40;;;;;;;;;;6263853;28;24455;-81
2024/02/14 01:13:19;;;;;;;16.33;10.68;;;;;;;;;;6268123;28;24443;-81
2024/02/14 01:16:23;;;;;;;16.08;10.68;;;;;;;;;;6268440;28;24459;-81
2024/02/14 01:19:28;;;;;;;14.95;10.52;;;;;;;;;;6266135;28;24842;-80
2024/02/14 01:22:29;;;;;;;16.80;11.10;;;;;;;;;;6267302;28;24491;-80
2024/02/14 01:25:31;;;;;;;16.45;10.23;;;;;;;;;;6269940;28;24423;-81
2024/02/14 01:28:33;;;;;;;15.65;10.52;;;;;;;;;;6269752;28;24422;-81
2024/02/14 01:31:36;;;;;;;13.32;9.02;;;;;;;;;;6268313;28;24779;-81
2024/02/14 01:34:37;;;;;;;14.18;9.82;;;;;;;;;;6269463;28;24603;-81
2024/02/14 01:37:39;;;;;;;14.52;9.40;;;;;;;;;;6268631;28;24419;-83
2024/02/14 01:40:43;;;;;;;16.37;9.67;;;;;;;;;;6269292;28;24412;-81
2024/02/14 01:43:45;;;;;;;15.13;10.20;;;;;;;;;;6267957;28;24825;-80
2024/02/14 01:46:48;;;;;;;16.93;9.90;;;;;;;;;;6268624;28;24576;-81
2024/02/14 01:49:49;;;;;;;13.65;9.43;;;;;;;;;;6265516;28;24434;-81
2024/02/14 01:52:51;;;;;;;14.93;9.23;;;;;;;;;;6268079;28;24418;-81
2024/02/14 01:55:52;;;;;;;16.43;10.67;;;;;;;;;;6270355;28;24733;-81
2024/02/14 01:58:54;;;;;;;14.57;9.82;;;;;;;;;;6269353;28;24663;-81
2024/02/14 02:01:57;;;;;;;16.33;9.70;;;;;;;;;;6268491;28;24423;-81
2024/02/14 02:04:58;;;;;;;14.52;9.30;;;;;;;;;;6269848;28;24683;-81
2024/02/14 02:08:00;;;;;;;14.85;9.48;;;;;;;;;;6266905;28;24419;-81
2024/02/14 02:11:01;;;;;;;13.85;9.93;;;;;;;;;;6269021;28;24682;-80
2024/02/14 02:14:03;;;;;;;13.38;9.65;;;;;;;;;;6267842;28;24416;-81
2024/02/14 02:17:07;;;;;;;14.03;8.83;;;;;;;;;;6267067;28;24420;-81
2024/02/14 02:20:09;;;;;;;14.40;9.35;;;;;;;;;;6265518;28;24470;-80
2024/02/14 02:23:14;;;;;;;13.93;9.07;;;;;;;;;;6264289;28;24420;-82
2024/02/14 02:26:15;;;;;;;13.13;9.30;;;;;;;;;;6265248;28;24435;-81
2024/02/14 02:29:19;;;;;;;14.90;9.25;;;;;;;;;;6268171;28;24647;-80
2024/02/14 02:32:21;;;;;;;13.40;9.02;;;;;;;;;;6268237;28;24666;-81
2024/02/14 02:35:24;;;;;;;14.55;9.65;;;;;;;;;;6263670;28;24420;-79
2024/02/14 02:38:27;;;;;;;13.03;9.13;;;;;;;;;;6267031;28;26041;-81
2024/02/14 02:41:28;;;;;;;13.57;9.57;;;;;;;;;;6266090;28;24424;-81
2024/02/14 02:44:30;;;;;;;14.30;9.70;;;;;;;;;;6267671;28;24423;-81
2024/02/14 02:47:31;;;;;;;15.37;9.73;;;;;;;;;;6265040;28;24428;-80
2024/02/14 02:50:33;;;;;;;15.18;9.95;;;;;;;;;;6265223;28;24444;-80
2024/02/14 02:53:36;;;;;;;15.75;9.60;;;;;;;;;;6267973;28;24412;-80
2024/02/14 02:56:38;;;;;;;15.68;10.27;;;;;;;;;;6268214;28;24412;-81
2024/02/14 02:59:42;;;;;;;14.50;9.82;;;;;;;;;;6265825;28;24810;-82
2024/02/14 03:02:44;;;;;;;14.25;9.85;;;;;;;;;;6265868;28;25005;-81
2024/02/14 03:05:46;;;;;;;15.17;9.80;;;;;;;;;;6264949;28;24830;-81
2024/02/14 03:08:52;;;;;;;14.83;10.00;;;;;;;;;;6267883;28;24475;-81
2024/02/14 03:11:56;;;;;;;14.88;9.77;;;;;;;;;;6267236;28;24498;-81
2024/02/14 03:14:58;;;;;;;15.90;9.98;;;;;;;;;;6265035;28;24457;-82
2024/02/14 03:17:59;;;;;;;14.82;10.20;;;;;;;;;;6269858;28;24482;-80
2024/02/14 03:21:01;;;;;;;16.25;9.95;;;;;;;;;;6266757;28;24422;-81
2024/02/14 03:24:04;;;;;;;15.60;9.90;;;;;;;;;;6265760;28;24595;-81
2024/02/14 03:27:06;;;;;;;14.32;9.52;;;;;;;;;;6267963;28;24423;-81
2024/02/14 03:30:08;;;;;;;16.73;9.63;;;;;;;;;;6265875;28;24431;-81
2024/02/14 03:33:09;;;;;;;16.83;10.57;;;;;;;;;;6266952;28;24818;-81
2024/02/14 03:36:11;;;;;;;13.73;9.13;;;;;;;;;;6266911;28;24853;-83
2024/02/14 03:39:14;;;;;;;14.75;9.48;;;;;;;;;;6267301;28;24831;-83
2024/02/14 03:42:16;;;;;;;14.65;8.73;;;;;;;;;;6262234;28;24421;-80
2024/02/14 03:45:18;;;;;;;12.93;8.65;;;;;;;;;;6265059;28;24668;-82
2024/02/14 03:48:19;;;;;;;14.55;9.10;;;;;;;;;;6266204;28;24821;-80
2024/02/14 03:51:21;;;;;;;14.15;9.63;;;;;;;;;;6265251;28;24435;-81
2024/02/14 03:54:24;;;;;;;14.30;9.55;;;;;;;;;;6264423;28;24431;-80
2024/02/14 03:57:28;;;;;;;14.80;9.00;;;;;;;;;;6264334;28;24465;-81
2024/02/14 04:00:29;;;;;;;13.57;9.18;;;;;;;;;;6262085;28;24870;-81
2024/02/14 04:03:31;;;;;;;13.60;9.43;;;;;;;;;;6264986;28;24592;-81
2024/02/14 04:06:32;;;;;;;12.60;9.07;;;;;;;;;;6265445;28;24947;-81
2024/02/14 04:09:35;;;;;;;14.63;9.43;;;;;;;;;;6265733;28;24628;-81
2024/02/14 04:12:37;;;;;;;14.43;9.73;;;;;;;;;;6264290;28;24426;-80
2024/02/14 04:15:38;;;;;;;14.20;8.90;;;;;;;;;;6267370;28;24432;-80
2024/02/14 04:18:39;;;;;;;14.90;9.32;;;;;;;;;;6264009;28;24419;-81
2024/02/14 04:21:41;;;;;;;15.20;9.48;;;;;;;;;;6267933;28;24465;-81
2024/02/14 04:24:44;;;;;;;12.68;8.70;;;;;;;;;;6260297;28;25148;-81
2024/02/14 04:27:45;;;;;;;11.77;8.57;;;;;;;;;;6265951;28;24412;-83
2024/02/14 04:30:48;;;;;;;15.05;9.43;;;;;;;;;;6264426;28;24855;-79
2024/02/14 04:33:52;;;;;;;13.90;9.23;;;;;;;;;;6266284;28;24420;-81
2024/02/14 04:36:53;;;;;;;16.57;9.43;;;;;;;;;;6265539;28;24419;-81
2024/02/14 04:39:56;;;;;;;14.07;9.27;;;;;;;;;;6266493;28;24436;-82
2024/02/14 04:42:57;;;;;;;14.30;9.57;;;;;;;;;;6266305;28;24421;-80
2024/02/14 04:45:59;;;;;;;15.77;9.20;;;;;;;;;;6263590;28;24985;-81
2024/02/14 04:49:02;;;;;;;13.35;8.85;;;;;;;;;;6263700;28;24861;-81
2024/02/14 04:52:04;;;;;;;16.33;9.20;;;;;;;;;;6266584;28;24473;-80
2024/02/14 04:55:08;;;;;;;16.85;9.98;;;;;;;;;;6264589;28;24420;-82
2024/02/14 04:58:09;;;;;;;14.70;9.77;;;;;;;;;;6267245;28;24435;-81
2024/02/14 05:01:11;;;;;;;16.08;9.75;;;;;;;;;;6264028;28;24439;-81
2024/02/14 05:04:13;;;;;;;14.32;9.48;;;;;;;;;;6262110;28;24786;-81
2024/02/14 05:07:15;;;;;;;15.65;10.13;;;;;;;;;;6263459;28;24814;-82
2024/02/14 05:10:18;;;;;;;13.80;9.77;;;;;;;;;;6262356;28;24688;-81
2024/02/14 05:13:20;;;;;;;14.98;9.95;;;;;;;;;;6264759;28;24493;-80
2024/02/14 05:16:21;;;;;;;14.80;9.67;;;;;;;;;;6263250;28;24411;-81
2024/02/14 05:19:23;;;;;;;16.52;9.90;;;;;;;;;;6265418;28;24442;-80
2024/02/14 05:22:25;;;;;;;14.50;9.07;;;;;;;;;;6264267;28;24423;-81
2024/02/14 05:25:29;;;;;;;15.68;9.35;;;;;;;;;;6264240;28;24390;-81
2024/02/14 05:28:31;;;;;;;15.20;9.50;;;;;;;;;;6260214;28;24592;-81
2024/02/14 05:31:43;;;;;;;13.20;9.13;;;;;;;;;;6268000;28;24419;-80
2024/02/14 05:34:44;;;;;;;14.60;9.25;;;;;;;;;;6268034;28;24825;-81
2024/02/14 05:37:49;;;;;;;16.02;9.27;;;;;;;;;;6266906;28;24423;-82
2024/02/14 05:40:52;;;;;;;14.43;9.60;;;;;;;;;;6269204;28;24465;-81
2024/02/14 05:43:53;;;;;;;14.55;9.15;;;;;;;;;;6268445;28;24445;-80
2024/02/14 05:46:55;;;;;;;14.02;9.70;;;;;;;;;;6269382;28;24412;-81
2024/02/14 05:49:56;;;;;;;13.73;8.75;;;;;;;;;;6269365;28;24821;-81
2024/02/14 05:52:58;;;;;;;16.70;9.43;;;;;;;;;;6270005;28;24427;-80
2024/02/14 05:56:00;;;;;;;14.32;8.98;;;;;;;;;;6266929;28;24449;-80
2024/02/14 05:59:02;;;;;;;12.38;8.05;;;;;;;;;;6266388;28;24424;-81
2024/02/14 06:02:05;;;;;;;11.52;7.88;;;;;;;;;;6266237;28;24474;-80
2024/02/14 06:05:09;;;;;;;12.65;8.20;;;;;;;;;;6268965;28;24490;-80
2024/02/14 06:08:10;;;;;;;13.67;8.53;;;;;;;;;;6269570;28;24420;-83
2024/02/14 06:11:14;;;;;;;14.83;8.20;;;;;;;;;;6267118;28;24439;-82
2024/02/14 06:14:15;;;;;;;12.55;8.50;;;;;;;;;;6266383;28;24427;-81
2024/02/14 06:17:17;;;;;;;11.40;7.90;;;;;;;;;;6266969;28;24538;-81
2024/02/14 06:20:19;;;;;;;12.73;7.75;;;;;;;;;;6266366;28;24423;-82
2024/02/14 06:23:20;;;;;;;12.05;7.72;;;;;;;;;;6265821;28;24424;-81
2024/02/14 06:26:23;;;;;;;10.80;7.07;;;;;;;;;;6266022;28;24818;-81
2024/02/14 06:29:24;;;;;;;11.57;6.93;;;;;;;;;;6266990;28;25296;-81
2024/02/14 06:32:26;;;;;;;10.02;6.63;;;;;;;;;;6265287;28;24415;-80
2024/02/14 06:35:27;;;;;;;11.35;6.60;;;;;;;;;;6263238;28;24427;-80
2024/02/14 06:38:28;;;;;;;10.77;6.57;;;;;;;;;;6267703;28;24655;-81
2024/02/14 06:41:31;;;;;;;10.73;6.55;;;;;;;;;;6265156;28;24806;-82
2024/02/14 06:44:33;;;;;;;10.43;6.30;;;;;;;;;;6266076;28;24416;-82
2024/02/14 06:47:34;;;;;;;8.68;6.32;;;;;;;;;;6265832;28;24436;-81
2024/02/14 06:50:36;;;;;;;9.20;6.22;;;;;;;;;;6265972;28;24510;-81
2024/02/14 06:53:37;;;;;;;9.90;6.27;;;;;;;;;;6266656;28;25012;-80
2024/02/14 06:56:40;;;;;;;9.35;6.30;;;;;;;;;;6269485;28;24461;-81
2024/02/14 06:59:42;;;;;;;11.00;6.40;;;;;;;;;;6267504;28;24420;-82
2024/02/14 07:02:44;;;;;;;10.00;6.00;;;;;;;;;;6267368;28;24819;-81
2024/02/14 07:05:45;;;;;;;10.73;6.13;;;;;;;;;;6266847;28;25005;-81
2024/02/14 07:08:47;;;;;;;7.90;6.00;;;;;;;;;;6263144;28;24419;-81
2024/02/14 07:11:50;;;;;;;9.65;5.88;;;;;;;;;;6266937;28;24857;-82
2024/02/14 07:14:52;;;;;;;9.27;6.05;;;;;;;;;;6266024;28;24569;-81
2024/02/14 07:17:53;;;;;;;12.00;6.38;;;;;;;;;;6264647;28;24442;-83
2024/02/14 07:20:55;;;;;;;11.18;6.10;;;;;;;;;;6262352;28;24428;-81
2024/02/14 07:23:56;;;;;;;9.95;5.90;;;;;;;;;;6264045;28;24818;-80
2024/02/14 07:26:59;;;;;;;9.30;6.05;;;;;;;;;;6264773;28;24546;-83
2024/02/14 07:30:00;;;;;;;8.57;5.88;;;;;;;;;;6265214;28;24815;-81
2024/02/14 07:33:02;;;;;;;9.15;6.10;;;;;;;;;;6267663;28;24435;-81
2024/02/14 07:36:04;;;;;;;12.15;7.20;;;;;;;;;;6265166;28;24420;-80
2024/02/14 07:39:05;;;;;;;12.75;7.22;;;;;;;;;;6265002;28;24442;-81
2024/02/14 07:42:08;;;;;;;13.75;7.53;;;;;;;;;;6263342;28;24419;-81
2024/02/14 07:45:10;;;;;;;12.77;7.45;;;;;;;;;;6265599;28;24430;-81
2024/02/14 07:48:11;;;;;;;10.88;7.22;;;;;;;;;;6266035;28;24428;-81
2024/02/14 07:51:13;;;;;;;11.57;7.30;;;;;;;;;;6262276;28;24450;-83
2024/02/14 07:54:14;;;;;;;9.85;7.07;;;;;;;;;;6265483;28;24477;-81
2024/02/14 07:57:17;;;;;;;9.18;6.47;;;;;;;;;;6264231;28;24430;-82
2024/02/14 08:00:22;;;;;;;9.50;6.35;;;;;;;;;;6265358;28;24430;-83
2024/02/14 08:03:24;;;;;;;10.27;6.13;;;;;;;;;;6266122;28;24423;-82
2024/02/14 08:06:25;;;;;;;7.85;5.53;;;;;;;;;;6265924;28;24428;-81
2024/02/14 08:09:27;;;;;;;7.87;5.97;;;;;;;;;;6264303;28;24424;-82
2024/02/14 08:12:30;;;;;;;8.65;5.95;;;;;;;;;;6264307;28;24442;-81
2024/02/14 08:15:31;;;;;;;9.68;6.30;;;;;;;;;;6264885;28;24628;-81
2024/02/14 08:18:33;;;;;;;8.67;5.80;;;;;;;;;;6264990;28;24465;-81
2024/02/14 08:21:35;;;;;;;8.57;5.57;;;;;;;;;;6264470;28;24588;-82
2024/02/14 08:24:37;;;;;;;8.25;5.20;;;;;;;;;;6268778;28;24425;-81
2024/02/14 08:27:40;;;;;;;6.55;5.00;;;;;;;;;;6267218;28;24419;-81
2024/02/14 08:30:41;;;;;;;7.57;5.40;;;;;;;;;;6266932;28;24457;-81
2024/02/14 08:33:43;;;;;;;8.52;5.53;;;;;;;;;;6267747;28;24640;-80
2024/02/14 08:36:44;;;;;;;7.85;5.43;;;;;;;;;;6262672;28;24490;-81
2024/02/14 08:39:46;;;;;;;8.68;5.70;;;;;;;;;;6266581;28;24430;-81
2024/02/14 08:42:48;;;;;;;8.03;5.53;;;;;;;;;;6264798;28;24427;-82
2024/02/14 08:45:51;;;;;;;8.87;5.67;;;;;;;;;;6262914;28;24423;-81
2024/02/14 08:48:54;;;;;;;7.63;5.47;;;;;;;;;;6263010;28;24545;-80
2024/02/14 08:51:55;;;;;;;9.53;5.90;;;;;;;;;;6265177;28;24469;-80
2024/02/14 08:54:57;;;;;;;28.35;21.00;;;;;;;;;;6268428;28;24422;-82
2024/02/14 08:58:00;;;;;;;44.70;30.10;;;;;;;;;;6264474;28;24432;-82
2024/02/14 09:01:01;;;;;;;22.88;15.32;;;;;;;;;;6263808;28;24434;-83
2024/02/14 09:04:02;;;;;;;10.18;7.03;;;;;;;;;;6266984;28;24430;-80
2024/02/14 09:07:04;;;;;;;9.88;6.03;;;;;;;;;;6269089;28;24430;-81
2024/02/14 09:10:06;;;;;;;10.00;5.93;;;;;;;;;;6267237;28;24411;-82
2024/02/14 09:13:09;;;;;;;9.25;6.20;;;;;;;;;;6267115;28;24439;-81
2024/02/14 09:16:11;;;;;;;10.77;6.35;;;;;;;;;;6270097;28;24816;-82
2024/02/14 09:19:13;;;;;;;8.93;6.47;;;;;;;;;;6267636;28;24419;-81
2024/02/14 09:22:20;;;;;;;8.18;5.60;;;;;;;;;;6270483;28;24486;-80
2024/02/14 09:25:23;;;;;;;10.87;6.87;;;;;;;;;;6272317;28;24439;-81
2024/02/14 09:28:26;;;;;;;9.98;6.13;;;;;;;;;;6267780;28;24689;-79
2024/02/14 09:31:27;;;;;;;9.47;5.27;;;;;;;;;;6265512;28;25810;-80
2024/02/14 09:34:29;;;;;;;8.52;5.43;;;;;;;;;;6267125;28;24414;-81
2024/02/14 09:37:30;;;;;;;9.15;5.50;;;;;;;;;;6269759;28;24408;-83
2024/02/14 09:40:31;;;;;;;6.40;4.88;;;;;;;;;;6267472;28;24411;-82
2024/02/14 09:43:36;;;;;;;7.03;4.97;;;;;;;;;;6267602;28;24414;-81
2024/02/14 09:46:38;;;;;;;7.85;5.50;;;;;;;;;;6268773;28;24407;-81
2024/02/14 09:49:40;;;;;;;7.68;5.03;;;;;;;;;;6268180;28;24426;-80
2024/02/14 09:52:42;;;;;;;7.25;5.03;;;;;;;;;;6267710;28;24695;-82
2024/02/14 09:55:44;;;;;;;10.02;5.10;;;;;;;;;;6270660;28;24430;-82
2024/02/14 09:58:49;;;;;;;7.80;5.43;;;;;;;;;;6267956;28;24416;-82
2024/02/14 10:01:52;;;;;;;8.77;5.87;;;;;;;;;;6271874;28;24443;-83
2024/02/14 10:04:53;;;;;;;9.93;6.43;;;;;;;;;;6265394;28;24435;-81
2024/02/14 10:07:57;;;;;;;8.23;5.55;;;;;;;;;;6269636;28;24455;-81
2024/02/14 10:10:59;;;;;;;11.18;6.40;;;;;;;;;;6268223;28;24424;-81
2024/02/14 10:14:03;;;;;;;7.85;5.95;;;;;;;;;;6267596;28;24466;-82
2024/02/14 10:17:05;;;;;;;8.90;6.80;;;;;;;;;;6267446;28;24526;-82
2024/02/14 10:20:07;;;;;;;8.77;6.35;;;;;;;;;;6268230;28;24513;-82
2024/02/14 10:23:09;;;;;;;9.27;6.45;;;;;;;;;;6265750;28;24479;-81
2024/02/14 10:26:11;;;;;;;9.43;7.00;;;;;;;;;;6267118;28;24419;-80
2024/02/14 10:29:14;;;;;;;10.32;7.55;;;;;;;;;;6270434;28;24419;-80
2024/02/14 10:32:16;;;;;;;10.85;7.43;;;;;;;;;;6267760;28;24538;-81
2024/02/14 10:35:17;;;;;;;14.70;8.77;;;;;;;;;;6267014;28;24428;-80
2024/02/14 10:38:20;;;;;;;11.52;8.57;;;;;;;;;;6265658;28;24412;-82
2024/02/14 10:41:22;;;;;;;12.70;8.45;;;;;;;;;;6266420;28;24465;-81
2024/02/14 10:44:25;;;;;;;12.43;8.75;;;;;;;;;;6268214;28;24806;-82
2024/02/14 10:47:30;;;;;;;10.82;8.25;;;;;;;;;;6268529;28;24439;-82
2024/02/14 10:50:33;;;;;;;10.45;7.95;;;;;;;;;;6262754;28;24612;-81
2024/02/14 10:53:35;;;;;;;11.98;7.95;;;;;;;;;;6267711;28;24415;-83
2024/02/14 10:56:39;;;;;;;15.45;9.40;;;;;;;;;;6266900;28;24523;-81
2024/02/14 10:59:44;;;;;;;12.65;9.23;;;;;;;;;;6265402;28;24810;-81
2024/02/14 11:02:47;;;;;;;13.50;8.70;;;;;;;;;;6264169;28;24478;-82
2024/02/14 11:05:49;;;;;;;12.73;8.80;;;;;;;;;;6263175;28;24604;-81
2024/02/14 11:08:57;;;;;;;13.60;9.57;;;;;;;;;;6268827;28;24871;-82
2024/02/14 11:12:01;;;;;;;16.10;10.20;;;;;;;;;;6265016;28;24512;-81
2024/02/14 11:15:10;;;;;;;13.93;10.07;;;;;;;;;;6263236;28;24443;-82
2024/02/14 11:18:12;;;;;;;15.77;11.02;;;;;;;;;;6267863;28;24462;-83
2024/02/14 11:21:17;;;;;;;15.52;11.05;;;;;;;;;;6264608;28;24431;-82
2024/02/14 11:24:18;;;;;;;16.60;11.93;;;;;;;;;;6266092;28;24438;-81
2024/02/14 11:27:21;;;;;;;14.25;10.68;;;;;;;;;;6266594;28;24451;-81
2024/02/14 11:30:34;;;;;;;16.25;11.57;;;;;;;;;;6263568;28;24596;-81
2024/02/14 11:33:36;;;;;;;16.70;11.43;;;;;;;;;;6266105;28;24851;-83
2024/02/14 11:36:38;;;;;;;15.65;11.32;;;;;;;;;;6263335;28;24490;-80
2024/02/14 11:39:39;;;;;;;14.35;10.40;;;;;;;;;;6262391;28;24511;-81
2024/02/14 11:42:41;;;;;;;13.13;9.80;;;;;;;;;;6264300;28;24431;-82
2024/02/14 11:45:46;;;;;;;13.85;9.90;;;;;;;;;;6267160;28;24554;-84
2024/02/14 11:48:47;;;;;;;13.75;10.05;;;;;;;;;;6267671;28;24420;-81
2024/02/14 11:51:49;;;;;;;13.38;10.20;;;;;;;;;;6266479;28;24853;-82
2024/02/14 11:54:50;;;;;;;35.53;23.33;;;;;;;;;;6266875;28;24438;-82
2024/02/14 11:57:52;;;;;;;61.67;38.90;;;;;;;;;;6266510;28;24419;-83
2024/02/14 12:00:55;;;;;;;34.27;22.93;;;;;;;;;;6266098;28;24421;-83
2024/02/14 12:03:56;;;;;;;79.77;49.70;;;;;;;;;;6263679;28;24414;-82
2024/02/14 12:06:58;;;;;;;37.07;25.03;;;;;;;;;;6268675;28;24683;-81
2024/02/14 12:10:00;;;;;;;40.72;28.35;;;;;;;;;;6263468;28;24427;-82
2024/02/14 12:13:05;;;;;;;27.85;19.42;;;;;;;;;;6265074;28;24504;-82
2024/02/14 12:16:08;;;;;;;37.80;26.02;;;;;;;;;;6267402;28;24611;-81
2024/02/14 12:19:15;;;;;;;30.35;21.83;;;;;;;;;;6265711;28;24624;-83
2024/02/14 12:22:19;;;;;;;19.70;13.65;;;;;;;;;;6266045;28;24423;-85
2024/02/14 12:25:20;;;;;;;14.90;11.18;;;;;;;;;;6262457;28;24434;-82
2024/02/14 12:28:23;;;;;;;14.65;10.65;;;;;;;;;;6265940;28;24431;-82
2024/02/14 12:31:26;;;;;;;15.98;11.07;;;;;;;;;;6264725;28;24437;-83
2024/02/14 12:34:28;;;;;;;24.00;18.13;;;;;;;;;;6268215;28;24407;-82
2024/02/14 12:37:30;;;;;;;52.25;36.25;;;;;;;;;;6269317;28;24491;-83
2024/02/14 12:40:32;;;;;;;49.17;35.13;;;;;;;;;;6275283;28;24407;-83
2024/02/14 12:43:34;;;;;;;28.57;20.67;;;;;;;;;;6275482;28;24493;-83
2024/02/14 12:46:38;;;;;;;20.63;12.90;;;;;;;;;;6272225;28;24408;-82
2024/02/14 12:49:39;;;;;;;15.10;10.80;;;;;;;;;;6270523;28;24635;-83
2024/02/14 12:52:41;;;;;;;13.13;10.13;;;;;;;;;;6275674;28;24431;-84
2024/02/14 12:55:42;;;;;;;12.37;9.40;;;;;;;;;;6272916;28;24427;-81
2024/02/14 12:58:44;;;;;;;14.48;10.45;;;;;;;;;;6271800;28;24425;-81
2024/02/14 13:01:48;;;;;;;15.85;11.07;;;;;;;;;;6274001;28;24419;-82
2024/02/14 13:04:52;;;;;;;13.27;9.77;;;;;;;;;;6271981;28;24415;-83
2024/02/14 13:07:53;;;;;;;14.88;9.70;;;;;;;;;;6272708;28;24640;-84
2024/02/14 13:10:55;;;;;;;13.80;9.65;;;;;;;;;;6274927;28;24419;-84
2024/02/14 13:13:56;;;;;;;14.33;9.37;;;;;;;;;;6274985;28;25232;-84
2024/02/14 13:16:59;;;;;;;12.38;9.20;;;;;;;;;;6273050;28;24802;-83
2024/02/14 13:20:01;;;;;;;12.93;9.40;;;;;;;;;;6276489;28;24407;-83
2024/02/14 13:23:03;;;;;;;12.73;9.38;;;;;;;;;;6268100;28;24837;-83
2024/02/14 13:26:05;;;;;;;10.83;8.27;;;;;;;;;;6273482;28;24495;-84
2024/02/14 13:29:07;;;;;;;10.55;7.93;;;;;;;;;;6271133;28;24435;-83
2024/02/14 13:32:10;;;;;;;13.00;9.20;;;;;;;;;;6274806;28;24423;-83
2024/02/14 13:35:13;;;;;;;10.98;8.45;;;;;;;;;;6272689;28;24411;-83
2024/02/14 13:38:14;;;;;;;11.07;8.02;;;;;;;;;;6274732;28;24477;-80
2024/02/14 13:41:16;;;;;;;9.60;7.63;;;;;;;;;;6273707;28;24415;-82
2024/02/14 13:44:18;;;;;;;11.02;8.13;;;;;;;;;;6270396;28;24659;-83
2024/02/14 13:47:21;;;;;;;12.48;8.13;;;;;;;;;;6268909;28;24597;-82
2024/02/14 13:50:23;;;;;;;9.80;7.27;;;;;;;;;;6270888;28;24485;-82
2024/02/14 13:53:24;;;;;;;10.93;7.60;;;;;;;;;;6269897;28;24507;-82
2024/02/14 13:56:26;;;;;;;8.48;6.22;;;;;;;;;;6265409;28;24491;-83
2024/02/14 13:59:27;;;;;;;8.23;6.15;;;;;;;;;;6267425;28;24498;-84
2024/02/14 14:02:30;;;;;;;8.70;6.90;;;;;;;;;;6268579;28;24423;-82
2024/02/14 14:05:32;;;;;;;9.02;7.20;;;;;;;;;;6269116;28;24679;-82
2024/02/14 14:08:35;;;;;;;10.87;7.70;;;;;;;;;;6263388;28;24428;-83
2024/02/14 14:11:37;;;;;;;10.57;8.15;;;;;;;;;;6265687;28;24419;-83
2024/02/14 14:14:39;;;;;;;8.40;6.50;;;;;;;;;;6265455;28;24420;-80
2024/02/14 14:17:41;;;;;;;20.42;15.25;;;;;;;;;;6268884;28;25088;-86
2024/02/14 14:20:43;;;;;;;44.97;33.92;;;;;;;;;;6268037;28;24419;-85
2024/02/14 14:23:44;;;;;;;34.95;25.52;;;;;;;;;;6265076;28;24414;-84
2024/02/14 14:26:46;;;;;;;13.55;10.63;;;;;;;;;;6270406;28;24552;-80
2024/02/14 14:29:48;;;;;;;10.15;7.38;;;;;;;;;;6269270;28;24478;-82
2024/02/14 14:32:51;;;;;;;8.35;5.95;;;;;;;;;;6267081;28;24435;-84
2024/02/14 14:35:53;;;;;;;7.47;5.67;;;;;;;;;;6266515;28;24446;-82
2024/02/14 14:38:55;;;;;;;9.25;6.95;;;;;;;;;;6265125;28;24498;-81
2024/02/14 14:41:58;;;;;;;8.77;6.57;;;;;;;;;;6268088;28;24415;-84
2024/02/14 14:44:59;;;;;;;8.77;6.50;;;;;;;;;;6267839;28;24430;-81
2024/02/14 14:48:02;;;;;;;10.13;6.67;;;;;;;;;;6266377;28;24626;-84
2024/02/14 14:51:04;;;;;;;7.33;5.30;;;;;;;;;;6266143;28;24430;-82
2024/02/14 14:54:05;;;;;;;10.23;7.07;;;;;;;;;;6268622;28;24431;-82
2024/02/14 14:57:14;;;;;;;33.10;22.95;;;;;;;;;;6267177;28;24465;-84
2024/02/14 15:00:16;;;;;;;63.47;40.58;;;;;;;;;;6269587;28;24416;-82
2024/02/14 15:03:19;;;;;;;18.90;12.68;;;;;;;;;;6268122;28;24504;-84
2024/02/14 15:06:20;;;;;;;51.65;34.17;;;;;;;;;;6263539;28;24449;-85
2024/02/14 15:09:22;;;;;;;57.85;37.47;;;;;;;;;;6268723;28;24427;-84
2024/02/14 15:12:25;;;;;;;20.88;13.23;;;;;;;;;;6267291;28;24423;-84
2024/02/14 15:15:27;;;;;;;16.45;11.02;;;;;;;;;;6265762;28;24427;-82
2024/02/14 15:18:30;;;;;;;26.77;18.73;;;;;;;;;;6266524;28;24427;-82
2024/02/14 15:21:31;;;;;;;11.10;7.97;;;;;;;;;;6264528;28;24442;-83
2024/02/14 15:24:34;;;;;;;9.38;6.53;;;;;;;;;;6264346;28;24659;-83
2024/02/14 15:27:40;;;;;;;9.13;6.45;;;;;;;;;;6266393;28;24412;-82
2024/02/14 15:34:04;;;;;;;9.38;6.78;;;;;;;;;;6262166;28;24463;-79
2024/02/14 15:37:05;;;;;;;7.07;5.10;;;;;;;;;;6263771;28;24828;-82
2024/02/14 15:40:07;;;;;;;6.85;4.63;;;;;;;;;;6263640;28;24658;-82
2024/02/14 15:43:09;;;;;;;9.85;6.43;;;;;;;;;;6263616;28;24431;-82
2024/02/14 15:46:11;;;;;;;8.73;5.93;;;;;;;;;;6263637;28;24436;-82
2024/02/14 15:49:13;;;;;;;8.75;5.85;;;;;;;;;;6265099;28;25124;-83
2024/02/14 15:52:17;;;;;;;8.40;6.05;;;;;;;;;;6265154;28;24426;-83
2024/02/14 15:55:18;;;;;;;10.17;7.00;;;;;;;;;;6261481;28;24525;-83
2024/02/14 15:58:20;;;;;;;10.13;6.75;;;;;;;;;;6266187;28;24439;-82
2024/02/14 16:01:21;;;;;;;9.20;6.55;;;;;;;;;;6260473;28;24869;-83
2024/02/14 16:04:24;;;;;;;8.68;6.10;;;;;;;;;;6262494;28;24427;-82
2024/02/14 16:07:26;;;;;;;8.50;5.97;;;;;;;;;;6261539;28;24428;-83
2024/02/14 16:10:27;;;;;;;9.43;6.57;;;;;;;;;;6263236;28;24930;-84
2024/02/14 16:13:30;;;;;;;9.93;6.75;;;;;;;;;;6261424;28;24407;-83
2024/02/14 16:16:31;;;;;;;10.88;7.95;;;;;;;;;;6262377;28;24422;-83
2024/02/14 16:19:34;;;;;;;11.73;8.00;;;;;;;;;;6261636;28;24403;-84
2024/02/14 16:22:36;;;;;;;12.40;7.97;;;;;;;;;;6264183;28;24408;-81
2024/02/14 16:25:37;;;;;;;11.40;7.53;;;;;;;;;;6263385;28;24418;-81
2024/02/14 16:28:39;;;;;;;14.05;8.23;;;;;;;;;;6263911;28;24627;-84
2024/02/14 16:31:40;;;;;;;13.85;8.95;;;;;;;;;;6261440;28;24410;-83
2024/02/14 16:34:48;;;;;;;12.70;8.35;;;;;;;;;;6261826;28;24416;-82
2024/02/14 16:37:49;;;;;;;11.75;8.13;;;;;;;;;;6260940;28;24954;-82
2024/02/14 16:40:51;;;;;;;11.63;7.47;;;;;;;;;;6264602;28;24418;-82
2024/02/14 16:43:52;;;;;;;10.65;7.38;;;;;;;;;;6260207;28;24432;-83
2024/02/14 16:46:54;;;;;;;12.57;8.18;;;;;;;;;;6261917;28;24775;-81
2024/02/14 16:49:57;;;;;;;15.07;8.80;;;;;;;;;;6263860;28;24423;-82
2024/02/14 16:52:58;;;;;;;12.77;8.18;;;;;;;;;;6261478;28;24664;-82
2024/02/14 16:56:00;;;;;;;11.93;7.75;;;;;;;;;;6262710;28;24806;-82
2024/02/14 16:59:01;;;;;;;13.93;8.07;;;;;;;;;;6265302;28;24427;-82
2024/02/14 17:02:05;;;;;;;11.13;7.43;;;;;;;;;;6260936;28;24422;-83
2024/02/14 17:05:08;;;;;;;11.48;7.50;;;;;;;;;;6265726;28;24423;-83
2024/02/14 17:08:10;;;;;;;13.73;7.60;;;;;;;;;;6262917;28;24846;-83
2024/02/14 17:11:13;;;;;;;12.30;7.85;;;;;;;;;;6264176;28;24585;-82
2024/02/14 17:14:15;;;;;;;13.15;8.02;;;;;;;;;;6265241;28;24438;-82
2024/02/14 17:17:16;;;;;;;12.43;7.90;;;;;;;;;;6262267;28;24428;-83
2024/02/14 17:20:19;;;;;;;10.98;7.82;;;;;;;;;;6264578;28;24442;-82
2024/02/14 17:23:20;;;;;;;11.77;7.57;;;;;;;;;;6262207;28;24424;-81
2024/02/14 17:26:22;;;;;;;14.15;7.68;;;;;;;;;;6266961;28;24439;-82
2024/02/14 17:29:23;;;;;;;11.40;7.50;;;;;;;;;;6271062;28;24443;-82
2024/02/14 17:32:25;;;;;;;11.60;7.18;;;;;;;;;;6269005;28;24419;-82
2024/02/14 17:35:28;;;;;;;11.38;7.50;;;;;;;;;;6269708;28;24880;-82
2024/02/14 17:38:31;;;;;;;11.02;7.18;;;;;;;;;;6270612;28;24806;-82
2024/02/14 17:41:34;;;;;;;12.55;7.43;;;;;;;;;;6270141;28;24408;-82
2024/02/14 17:44:35;;;;;;;11.13;7.27;;;;;;;;;;6268838;28;24604;-82
2024/02/14 17:47:37;;;;;;;11.85;7.35;;;;;;;;;;6270890;28;24817;-82
2024/02/14 17:50:40;;;;;;;13.07;7.70;;;;;;;;;;6270492;28;24490;-82
2024/02/14 17:53:43;;;;;;;13.30;7.85;;;;;;;;;;6266363;28;24667;-82
2024/02/14 17:56:45;;;;;;;14.47;8.30;;;;;;;;;;6269877;28;24484;-81